createdAt,value
2017-04-30T07:30:36.401Z,33.50
2017-04-30T07:33:17.964Z,34.40
2017-04-30T07:35:58.853Z,32.60
2017-04-30T07:38:40.208Z,34.80
2017-04-30T07:41:20.327Z,34.80
2017-04-30T07:43:48.954Z,34.70
2017-04-30T07:46:17.240Z,34.90
2017-04-30T07:48:45.538Z,34.80
2017-04-30T07:51:14.997Z,35.50
2017-04-30T07:53:43.291Z,38.60
2017-04-30T07:56:11.594Z,38.00
2017-04-30T07:58:39.907Z,37.50
2017-04-30T08:01:08.220Z,36.40
2017-04-30T08:03:36.508Z,35.30
2017-04-30T08:06:04.796Z,34.40
2017-04-30T08:08:33.101Z,34.10
2017-04-30T08:11:01.401Z,34.80
2017-04-30T08:13:29.683Z,37.00
2017-04-30T08:15:57.974Z,35.70
2017-04-30T08:18:26.573Z,34.10
2017-04-30T08:20:54.862Z,35.40
2017-04-30T08:23:23.143Z,35.10
2017-04-30T08:25:51.430Z,34.30
2017-04-30T08:28:20.451Z,34.10
2017-04-30T08:30:48.740Z,34.70
2017-04-30T08:33:17.039Z,33.60
2017-04-30T08:35:45.337Z,33.20
2017-04-30T08:38:13.633Z,33.60
2017-04-30T08:40:42.682Z,32.40
2017-04-30T08:43:10.971Z,32.50
2017-04-30T08:45:39.258Z,34.30
2017-04-30T08:48:07.546Z,37.40
2017-04-30T08:50:35.828Z,39.00
2017-04-30T08:53:04.110Z,39.60
2017-04-30T08:55:33.144Z,37.60
2017-04-30T08:58:01.444Z,35.20
2017-04-30T09:00:29.755Z,33.60
2017-04-30T09:02:58.809Z,32.70
2017-04-30T09:05:27.122Z,32.40
2017-04-30T09:07:55.423Z,31.60
2017-04-30T09:10:23.727Z,32.10
2017-04-30T09:12:52.025Z,31.50
2017-04-30T09:15:20.322Z,31.60
2017-04-30T09:17:48.627Z,31.00
2017-04-30T09:20:17.660Z,30.60
2017-04-30T09:22:45.956Z,31.20
2017-04-30T09:25:14.257Z,32.50
2017-04-30T09:27:42.562Z,33.80
2017-04-30T09:30:11.591Z,35.40
2017-04-30T09:32:39.884Z,37.20
2017-04-30T09:35:08.182Z,38.20
2017-04-30T09:37:36.471Z,38.70
2017-04-30T09:40:04.765Z,39.10
2017-04-30T09:42:33.072Z,39.40
2017-04-30T09:45:01.362Z,39.50
2017-04-30T09:47:29.751Z,39.50
2017-04-30T09:49:58.050Z,39.60
2017-04-30T09:52:26.350Z,39.70
2017-04-30T09:54:55.390Z,39.90
2017-04-30T09:57:23.688Z,39.90
2017-04-30T09:59:51.991Z,40.00
2017-04-30T10:02:21.038Z,40.00
2017-04-30T10:04:49.327Z,40.10
2017-04-30T10:07:17.607Z,40.10
2017-04-30T10:09:45.907Z,40.10
2017-04-30T10:12:14.190Z,40.00
2017-04-30T10:14:42.481Z,40.00
2017-04-30T10:17:11.518Z,40.20
2017-04-30T10:19:39.807Z,40.20
2017-04-30T10:22:08.098Z,40.20
2017-04-30T10:24:36.384Z,40.20
2017-04-30T10:27:04.674Z,40.40
2017-04-30T10:29:33.711Z,40.50
2017-04-30T10:32:02.002Z,40.40
2017-04-30T10:34:30.286Z,40.40
2017-04-30T10:36:58.589Z,40.30
2017-04-30T10:39:26.886Z,40.40
2017-04-30T10:41:55.928Z,40.40
2017-04-30T10:44:24.214Z,40.40
2017-04-30T10:46:52.505Z,40.40
2017-04-30T10:49:20.790Z,40.40
2017-04-30T10:51:49.081Z,40.20
2017-04-30T10:54:18.111Z,40.60
2017-04-30T10:56:46.401Z,40.50
2017-04-30T10:59:14.687Z,40.20
2017-04-30T11:01:43.269Z,40.00
2017-04-30T11:04:11.555Z,37.50
2017-04-30T11:06:39.879Z,38.70
2017-04-30T11:09:08.915Z,38.50
2017-04-30T11:11:37.207Z,39.30
2017-04-30T11:14:05.499Z,39.60
2017-04-30T11:16:33.789Z,40.00
2017-04-30T11:19:02.081Z,40.00
2017-04-30T11:21:31.121Z,40.10
2017-04-30T11:23:59.423Z,40.20
2017-04-30T11:26:27.762Z,40.10
2017-04-30T11:28:56.049Z,40.20
2017-04-30T11:31:24.332Z,40.10
2017-04-30T11:33:52.635Z,40.20
2017-04-30T11:36:20.928Z,40.30
2017-04-30T11:38:49.218Z,40.40
2017-04-30T11:41:18.250Z,40.30
2017-04-30T11:43:46.542Z,40.30
2017-04-30T11:46:14.842Z,40.20
2017-04-30T11:48:43.134Z,40.20
2017-04-30T11:51:11.441Z,40.20
2017-04-30T11:53:39.723Z,40.30
2017-04-30T11:56:08.013Z,40.30
2017-04-30T11:58:36.305Z,40.20
2017-04-30T12:01:04.593Z,40.00
2017-04-30T12:03:32.877Z,40.00
2017-04-30T12:06:01.157Z,40.10
2017-04-30T12:08:29.446Z,40.00
2017-04-30T12:10:57.740Z,39.80
2017-04-30T12:13:26.789Z,38.00
2017-04-30T12:15:55.097Z,34.80
2017-04-30T12:18:23.387Z,35.00
2017-04-30T12:20:52.440Z,37.20
2017-04-30T12:23:20.728Z,38.80
2017-04-30T12:25:49.022Z,38.80
2017-04-30T12:28:17.318Z,39.10
2017-04-30T12:30:46.366Z,39.10
2017-04-30T12:33:14.650Z,39.00
2017-04-30T12:35:42.946Z,39.00
2017-04-30T12:38:11.237Z,38.90
2017-04-30T12:40:40.273Z,39.10
2017-04-30T12:43:08.565Z,39.10
2017-04-30T12:45:36.854Z,39.10
2017-04-30T12:48:05.149Z,39.20
2017-04-30T12:50:33.439Z,39.30
2017-04-30T12:53:01.746Z,39.30
2017-04-30T12:55:30.045Z,39.60
2017-04-30T12:57:58.338Z,39.60
2017-04-30T13:00:26.642Z,39.70
2017-04-30T13:02:55.091Z,39.70
2017-04-30T13:05:23.386Z,39.80
2017-04-30T13:07:51.669Z,39.80
2017-04-30T13:10:19.967Z,39.80
2017-04-30T13:12:49.010Z,39.80
2017-04-30T13:15:17.304Z,39.90
2017-04-30T13:17:45.603Z,39.80
2017-04-30T13:20:13.906Z,39.70
2017-04-30T13:22:42.933Z,40.00
2017-04-30T13:25:11.550Z,40.00
2017-04-30T13:27:39.843Z,39.90
2017-04-30T13:30:08.132Z,39.80
2017-04-30T13:32:37.183Z,39.70
2017-04-30T13:35:05.480Z,37.90
2017-04-30T13:37:33.771Z,36.40
2017-04-30T13:40:02.075Z,35.80
2017-04-30T13:42:30.372Z,34.70
2017-04-30T13:44:58.661Z,36.00
2017-04-30T13:47:26.976Z,35.80
2017-04-30T13:49:55.278Z,35.00
2017-04-30T13:52:24.669Z,34.70
2017-04-30T13:54:52.965Z,33.30
2017-04-30T13:57:21.264Z,32.20
2017-04-30T13:59:49.563Z,31.80
2017-04-30T14:02:18.205Z,31.60
2017-04-30T14:04:46.502Z,31.30
2017-04-30T14:07:16.409Z,30.70
2017-04-30T14:09:45.032Z,30.10
2017-04-30T14:12:13.338Z,29.80
2017-04-30T14:14:42.385Z,29.50
2017-04-30T14:17:11.000Z,29.80
2017-04-30T14:19:39.297Z,29.90
2017-04-30T14:22:08.334Z,31.30
2017-04-30T14:24:36.981Z,30.40
2017-04-30T14:27:05.278Z,30.20
2017-04-30T14:29:33.572Z,30.10
2017-04-30T14:32:02.166Z,30.50
2017-04-30T14:34:30.468Z,31.00
2017-04-30T14:36:58.775Z,30.40
2017-04-30T14:39:28.118Z,31.60
2017-04-30T14:41:56.418Z,31.70
2017-04-30T14:44:24.726Z,31.40
2017-04-30T14:46:53.337Z,32.50
2017-04-30T14:49:21.633Z,31.30
2017-04-30T14:51:49.922Z,31.70
2017-04-30T14:54:18.537Z,31.70
2017-04-30T14:56:46.838Z,31.90
2017-04-30T14:59:15.878Z,31.90
2017-04-30T15:01:44.483Z,31.80
2017-04-30T15:04:12.782Z,31.50
2017-04-30T15:06:41.135Z,31.70
2017-04-30T15:09:09.826Z,31.60
2017-04-30T15:11:38.127Z,31.80
2017-04-30T15:14:06.434Z,32.70
2017-04-30T15:16:35.042Z,32.90
2017-04-30T15:19:03.328Z,33.50
2017-04-30T15:21:31.725Z,33.70
2017-04-30T15:24:00.326Z,33.60
2017-04-30T15:26:28.615Z,33.60
2017-04-30T15:28:57.648Z,33.60
2017-04-30T15:31:26.226Z,34.10
2017-04-30T15:33:54.520Z,34.20
2017-04-30T15:36:22.822Z,34.40
2017-04-30T15:38:54.684Z,34.10
2017-04-30T15:41:22.975Z,34.10
2017-04-30T15:43:51.258Z,34.40
2017-04-30T15:46:19.916Z,34.50
2017-04-30T15:48:49.223Z,34.70
2017-04-30T15:51:17.520Z,34.70
2017-04-30T15:53:46.180Z,34.70
2017-04-30T15:56:14.470Z,35.00
2017-04-30T15:58:42.760Z,35.00
2017-04-30T16:01:11.347Z,35.30
2017-04-30T16:03:39.649Z,35.60
2017-04-30T16:06:07.966Z,35.40
2017-04-30T16:08:36.557Z,35.60
2017-04-30T16:11:04.835Z,35.40
2017-04-30T16:13:33.125Z,35.50
2017-04-30T16:16:01.806Z,35.60
2017-04-30T16:18:30.088Z,35.50
2017-04-30T16:20:58.383Z,35.70
2017-04-30T16:23:27.045Z,35.90
2017-04-30T16:25:55.378Z,36.50
2017-04-30T16:28:23.668Z,36.60
2017-04-30T16:30:52.255Z,36.30
2017-04-30T16:33:20.545Z,36.30
2017-04-30T16:35:48.830Z,36.30
2017-04-30T16:38:17.432Z,36.40
2017-04-30T16:40:45.723Z,36.40
2017-04-30T16:43:14.012Z,36.60
2017-04-30T16:45:43.382Z,36.40
2017-04-30T16:48:11.669Z,36.70
2017-04-30T16:50:39.980Z,36.60
2017-04-30T16:53:08.629Z,36.50
2017-04-30T16:55:36.911Z,36.10
2017-04-30T16:58:05.203Z,35.90
2017-04-30T17:00:33.856Z,35.90
2017-04-30T17:03:02.143Z,36.00
2017-04-30T17:05:30.438Z,36.70
2017-04-30T17:07:59.020Z,37.70
2017-04-30T17:10:27.330Z,37.30
2017-04-30T17:12:55.622Z,37.30
2017-04-30T17:15:24.221Z,37.40
2017-04-30T17:17:52.521Z,37.40
2017-04-30T17:20:20.813Z,37.30
2017-04-30T17:22:49.483Z,37.40
2017-04-30T17:25:17.776Z,38.20
2017-04-30T17:27:46.238Z,38.40
2017-04-30T17:30:14.933Z,38.30
2017-04-30T17:32:43.316Z,38.20
2017-04-30T17:35:11.612Z,38.20
2017-04-30T17:37:40.989Z,38.20
2017-04-30T17:40:09.277Z,38.50
2017-04-30T17:42:37.556Z,38.60
2017-04-30T17:45:06.187Z,38.90
2017-04-30T17:47:34.478Z,38.20
2017-04-30T17:50:02.782Z,37.40
2017-04-30T17:52:31.476Z,37.20
2017-04-30T17:54:59.780Z,37.10
2017-04-30T17:57:28.822Z,36.90
2017-04-30T17:59:57.428Z,37.00
2017-04-30T18:02:25.707Z,36.80
2017-04-30T18:04:53.997Z,36.70
2017-04-30T18:07:22.667Z,36.60
2017-04-30T18:09:50.945Z,36.60
2017-04-30T18:12:19.249Z,36.70
2017-04-30T18:14:48.625Z,36.70
2017-04-30T18:17:16.914Z,36.80
2017-04-30T18:19:45.206Z,36.90
2017-04-30T18:22:14.563Z,36.90
2017-04-30T18:24:42.891Z,36.90
2017-04-30T18:27:11.984Z,37.20
2017-04-30T18:29:41.359Z,37.30
2017-04-30T18:32:09.663Z,37.20
2017-04-30T18:34:38.700Z,37.40
2017-04-30T18:37:07.312Z,37.30
2017-04-30T18:39:35.620Z,37.30
2017-04-30T18:42:04.674Z,37.20
2017-04-30T18:44:33.388Z,37.30
2017-04-30T18:47:04.898Z,37.50
2017-04-30T18:49:33.503Z,37.60
2017-04-30T18:52:01.805Z,37.50
2017-04-30T18:54:30.103Z,37.50
2017-04-30T18:56:59.482Z,37.60
2017-04-30T18:59:27.787Z,37.60
2017-04-30T19:01:56.131Z,37.80
2017-04-30T19:04:24.739Z,38.50
2017-04-30T19:06:53.769Z,38.50
2017-04-30T19:09:22.055Z,37.90
2017-04-30T19:11:50.651Z,37.90
2017-04-30T19:14:18.958Z,37.80
2017-04-30T19:16:47.265Z,37.80
2017-04-30T19:19:16.625Z,37.80
2017-04-30T19:21:44.940Z,38.00
2017-04-30T19:24:13.993Z,37.80
2017-04-30T19:26:42.612Z,37.90
2017-04-30T19:29:11.663Z,37.80
2017-04-30T19:31:39.976Z,37.90
2017-04-30T19:34:08.635Z,37.70
2017-04-30T19:36:36.930Z,37.90
2017-04-30T19:39:05.229Z,37.80
2017-04-30T19:41:34.584Z,37.70
2017-04-30T19:44:02.888Z,37.80
2017-04-30T19:46:31.206Z,37.90
2017-04-30T19:48:59.838Z,37.90
2017-04-30T19:51:28.148Z,37.90
2017-04-30T19:54:01.003Z,37.90
2017-04-30T19:56:29.308Z,37.90
2017-04-30T19:58:58.360Z,38.00
2017-04-30T20:01:27.073Z,38.00
2017-04-30T20:03:55.359Z,38.00
2017-04-30T20:06:23.657Z,38.10
2017-04-30T20:08:52.994Z,38.00
2017-04-30T20:11:21.309Z,38.20
2017-04-30T20:13:49.605Z,38.20
2017-04-30T20:16:18.993Z,38.40
2017-04-30T20:18:47.298Z,38.30
2017-04-30T20:21:15.594Z,38.40
2017-04-30T20:23:44.217Z,38.40
2017-04-30T20:26:12.518Z,38.50
2017-04-30T20:28:41.545Z,39.00
2017-04-30T20:31:10.151Z,38.60
2017-04-30T20:33:38.453Z,38.60
2017-04-30T20:36:06.771Z,38.60
2017-04-30T20:38:36.131Z,38.70
2017-04-30T20:41:04.428Z,38.60
2017-04-30T20:43:32.735Z,38.50
2017-04-30T20:46:01.338Z,38.70
2017-04-30T20:48:29.634Z,38.60
2017-04-30T20:50:57.949Z,39.20
2017-04-30T20:53:26.616Z,39.70
2017-04-30T20:55:54.920Z,40.50
2017-04-30T20:58:23.964Z,41.00
2017-04-30T21:00:52.667Z,41.10
2017-04-30T21:03:20.959Z,41.20
2017-04-30T21:05:49.245Z,41.10
2017-04-30T21:08:17.854Z,41.40
2017-04-30T21:10:46.152Z,41.20
2017-04-30T21:13:14.445Z,41.40
2017-04-30T21:15:43.050Z,41.00
2017-04-30T21:18:11.349Z,41.40
2017-04-30T21:20:39.664Z,41.30
2017-04-30T21:23:08.287Z,41.70
2017-04-30T21:25:36.588Z,41.60
2017-04-30T21:28:04.891Z,42.40
2017-04-30T21:30:33.546Z,41.40
2017-04-30T21:33:01.848Z,41.50
2017-04-30T21:35:30.889Z,41.40
2017-04-30T21:37:59.590Z,41.50
2017-04-30T21:40:27.903Z,41.30
2017-04-30T21:42:56.949Z,41.30
2017-04-30T21:45:25.549Z,41.30
2017-04-30T21:47:53.851Z,41.60
2017-04-30T21:50:22.899Z,42.20
2017-04-30T21:52:51.502Z,41.50
2017-04-30T21:55:19.801Z,41.50
2017-04-30T21:57:48.126Z,41.60
2017-04-30T22:00:16.750Z,41.40
2017-04-30T22:02:45.051Z,41.60
2017-04-30T22:05:14.083Z,41.60
2017-04-30T22:07:42.696Z,41.50
2017-04-30T22:10:10.984Z,41.70
2017-04-30T22:12:39.278Z,41.60
2017-04-30T22:15:07.948Z,41.60
2017-04-30T22:17:36.259Z,41.40
2017-04-30T22:20:05.302Z,41.50
2017-04-30T22:22:33.999Z,41.40
2017-04-30T22:25:02.290Z,41.30
2017-04-30T22:27:30.581Z,41.60
2017-04-30T22:29:59.958Z,41.80
2017-04-30T22:32:28.260Z,41.50
2017-04-30T22:34:56.560Z,41.50
2017-04-30T22:37:25.164Z,42.10
2017-04-30T22:39:53.459Z,41.50
2017-04-30T22:42:21.760Z,41.40
2017-04-30T22:44:50.365Z,41.10
2017-04-30T22:47:19.395Z,41.40
2017-04-30T22:49:47.686Z,41.70
2017-04-30T22:52:16.294Z,41.60
2017-04-30T22:54:44.585Z,41.50
2017-04-30T22:57:12.880Z,41.70
2017-04-30T22:59:42.224Z,41.50
2017-04-30T23:02:10.511Z,41.70
2017-04-30T23:04:38.807Z,41.70
2017-04-30T23:07:07.494Z,41.80
2017-04-30T23:09:35.786Z,41.20
2017-04-30T23:12:04.077Z,41.40
2017-04-30T23:14:36.447Z,41.80
2017-04-30T23:17:05.482Z,41.90
2017-04-30T23:19:33.782Z,41.60
2017-04-30T23:22:02.381Z,41.80
2017-04-30T23:24:30.682Z,41.80
2017-04-30T23:26:59.722Z,42.30
2017-04-30T23:29:28.331Z,41.60
2017-04-30T23:31:56.625Z,41.70
2017-04-30T23:34:24.909Z,41.40
2017-04-30T23:36:53.572Z,41.40
2017-04-30T23:39:21.867Z,41.60
2017-04-30T23:41:50.159Z,41.50
2017-04-30T23:44:19.496Z,41.50
2017-04-30T23:46:47.794Z,41.50
2017-04-30T23:49:16.092Z,41.70
2017-04-30T23:51:44.779Z,41.70
2017-04-30T23:54:13.072Z,41.70
2017-04-30T23:56:41.374Z,41.60
2017-04-30T23:59:09.996Z,42.10
